createdAt,value
2022-12-01T00:01:18.103Z,36.42
2022-12-01T00:03:45.802Z,37.05
2022-12-01T00:06:16.204Z,35.33
2022-12-01T00:09:06.456Z,37.78
2022-12-01T00:11:36.010Z,37.08
2022-12-01T00:14:04.157Z,31.27
2022-12-01T00:16:32.662Z,34.92
2022-12-01T00:19:00.395Z,33.08
2022-12-01T00:21:28.428Z,36.90
2022-12-01T00:23:58.439Z,39.95
2022-12-01T00:26:27.148Z,37.33
2022-12-01T00:28:58.098Z,30.20
2022-12-01T00:31:27.169Z,38.83
2022-12-01T00:33:54.941Z,41.30
2022-12-01T00:36:23.553Z,40.45
2022-12-01T00:38:53.675Z,36.15
2022-12-01T00:41:21.828Z,37.70
2022-12-01T00:43:49.532Z,33.85
2022-12-01T00:46:18.606Z,37.83
2022-12-01T00:48:46.279Z,39.92
2022-12-01T00:51:13.931Z,36.20
2022-12-01T00:53:41.544Z,35.33
2022-12-01T00:56:09.171Z,39.70
2022-12-01T00:58:36.834Z,37.00
2022-12-01T01:01:05.499Z,35.03
2022-12-01T01:03:35.524Z,34.50
2022-12-01T01:06:07.858Z,34.55
2022-12-01T01:08:35.972Z,35.22
2022-12-01T01:11:03.789Z,39.58
2022-12-01T01:13:32.004Z,31.65
2022-12-01T01:20:58.460Z,37.22
2022-12-01T01:23:26.147Z,34.92
2022-12-01T01:25:53.936Z,36.10
2022-12-01T01:28:21.556Z,33.38
2022-12-01T01:30:49.343Z,42.30
2022-12-01T01:33:17.104Z,32.13
2022-12-01T01:35:44.695Z,33.45
2022-12-01T01:38:13.679Z,37.97
2022-12-01T01:40:44.185Z,32.85
2022-12-01T01:43:16.547Z,34.15
2022-12-01T01:45:44.688Z,39.90
2022-12-01T01:48:14.532Z,35.65
2022-12-01T01:50:42.614Z,34.20
2022-12-01T01:53:15.492Z,28.90
2022-12-01T01:55:43.165Z,38.58
2022-12-01T01:58:12.016Z,37.33
2022-12-01T02:00:41.747Z,34.70
2022-12-01T02:03:11.031Z,33.22
2022-12-01T02:05:40.637Z,39.03
2022-12-01T02:08:12.253Z,39.78
2022-12-01T02:10:57.941Z,34.20
2022-12-01T02:13:34.491Z,33.70
2022-12-01T02:16:08.426Z,38.67
2022-12-01T02:18:42.342Z,41.85
2022-12-01T02:21:26.900Z,33.88
2022-12-01T02:24:21.490Z,38.28
2022-12-01T02:26:54.939Z,33.03
2022-12-01T02:29:54.035Z,33.50
2022-12-01T02:32:31.019Z,42.53
2022-12-01T02:35:01.951Z,38.05
2022-12-01T02:37:34.899Z,38.45
2022-12-01T02:40:13.414Z,44.60
2022-12-01T02:42:53.633Z,42.83
2022-12-01T02:45:33.776Z,39.97
2022-12-01T02:48:06.353Z,38.40
2022-12-01T02:50:36.789Z,39.00
2022-12-01T02:53:07.366Z,38.25
2022-12-01T02:55:35.038Z,34.03
2022-12-01T02:58:02.683Z,39.90
2022-12-01T03:00:31.921Z,42.00
2022-12-01T03:03:28.816Z,38.63
2022-12-01T03:06:05.837Z,37.63
2022-12-01T03:08:46.101Z,40.03
2022-12-01T03:11:27.894Z,46.53
2022-12-01T03:14:13.192Z,42.72
2022-12-01T03:16:51.219Z,39.45
2022-12-01T03:19:30.527Z,41.00
2022-12-01T03:22:03.206Z,34.22
2022-12-01T03:24:33.092Z,39.38
2022-12-01T03:27:03.012Z,38.20
2022-12-01T03:29:34.517Z,34.90
2022-12-01T03:32:06.363Z,34.30
2022-12-01T03:34:40.370Z,42.67
2022-12-01T03:37:12.311Z,40.15
2022-12-01T03:39:41.078Z,33.78
2022-12-01T03:42:15.601Z,31.60
2022-12-01T03:44:47.737Z,31.98
2022-12-01T03:47:18.600Z,37.42
2022-12-01T03:49:48.915Z,39.53
2022-12-01T03:52:27.022Z,34.20
2022-12-01T03:55:05.780Z,33.80
2022-12-01T03:57:39.831Z,40.22
2022-12-01T04:00:11.299Z,35.00
2022-12-01T04:02:39.033Z,37.42
2022-12-01T04:05:10.257Z,37.78
2022-12-01T04:07:38.184Z,37.90
2022-12-01T04:10:07.698Z,35.22
2022-12-01T04:12:35.391Z,33.85
2022-12-01T04:15:06.071Z,37.75
2022-12-01T04:17:33.739Z,33.05
2022-12-01T04:20:01.811Z,37.17
2022-12-01T04:22:30.949Z,35.30
2022-12-01T04:24:58.567Z,32.35
2022-12-01T04:27:26.413Z,38.92
2022-12-01T04:29:54.059Z,34.78
2022-12-01T04:32:21.717Z,35.83
2022-12-01T04:34:49.417Z,36.30
2022-12-01T04:37:17.492Z,39.80
2022-12-01T04:39:46.649Z,32.17
2022-12-01T04:42:14.374Z,40.22
2022-12-01T04:44:42.030Z,37.05
2022-12-01T04:47:09.668Z,37.15
2022-12-01T04:49:37.475Z,39.33
2022-12-01T04:52:05.598Z,35.83
2022-12-01T04:54:33.272Z,40.58
2022-12-01T04:57:02.266Z,34.65
2022-12-01T04:59:29.909Z,32.92
2022-12-01T05:01:57.555Z,41.10
2022-12-01T05:04:25.261Z,35.83
2022-12-01T05:06:55.442Z,34.33
2022-12-01T05:09:23.140Z,41.22
2022-12-01T05:11:50.760Z,37.42
2022-12-01T05:14:19.750Z,40.50
2022-12-01T05:16:47.422Z,34.97
2022-12-01T05:19:32.559Z,39.90
2022-12-01T05:22:00.259Z,33.80
2022-12-01T05:24:28.166Z,34.55
2022-12-01T05:26:55.806Z,31.45
2022-12-01T05:29:24.773Z,37.08
2022-12-01T05:31:52.434Z,40.67
2022-12-01T05:34:20.112Z,33.63
2022-12-01T05:36:47.734Z,40.78
2022-12-01T05:39:15.486Z,32.35
2022-12-01T05:41:43.169Z,33.35
2022-12-01T05:44:10.797Z,39.42
2022-12-01T05:46:39.811Z,39.17
2022-12-01T05:49:07.607Z,41.00
2022-12-01T05:51:35.443Z,35.70
2022-12-01T05:54:03.562Z,38.30
2022-12-01T05:56:31.214Z,46.40
2022-12-01T05:58:58.884Z,37.13
2022-12-01T06:01:26.536Z,36.35
2022-12-01T06:03:55.595Z,39.63
2022-12-01T06:06:23.231Z,34.83
2022-12-01T06:08:50.868Z,40.95
2022-12-01T06:11:18.500Z,37.35
2022-12-01T06:13:46.131Z,28.05
2022-12-01T06:16:13.857Z,37.45
2022-12-01T06:18:41.562Z,37.75
2022-12-01T06:21:10.512Z,36.97
2022-12-01T06:23:38.115Z,36.58
2022-12-01T06:26:06.049Z,37.30
2022-12-01T06:28:33.663Z,34.78
2022-12-01T06:31:03.506Z,37.17
2022-12-01T06:33:31.932Z,42.40
2022-12-01T06:36:00.029Z,41.78
2022-12-01T06:38:32.277Z,37.00
2022-12-01T06:40:59.937Z,40.97
2022-12-01T06:43:27.715Z,43.10
2022-12-01T06:46:01.274Z,35.40
2022-12-01T06:48:30.050Z,38.92
2022-12-01T06:50:58.444Z,38.80
2022-12-01T06:53:27.292Z,31.42
2022-12-01T06:55:56.372Z,35.92
2022-12-01T06:58:24.092Z,38.03
2022-12-01T07:00:52.512Z,41.95
2022-12-01T07:03:20.263Z,36.95
2022-12-01T07:05:56.322Z,41.72
2022-12-01T07:08:23.928Z,36.22
2022-12-01T07:10:59.390Z,39.13
2022-12-01T07:13:32.802Z,35.92
2022-12-01T07:16:01.927Z,44.08
2022-12-01T07:21:00.343Z,42.28
2022-12-01T07:23:28.528Z,42.88
2022-12-01T07:26:01.186Z,40.45
2022-12-01T07:28:29.239Z,42.67
2022-12-01T07:31:02.538Z,42.78
2022-12-01T07:33:30.356Z,42.53
2022-12-01T07:35:58.118Z,35.35
2022-12-01T07:38:25.756Z,42.55
2022-12-01T07:40:53.430Z,46.10
2022-12-01T07:43:22.428Z,40.70
2022-12-01T07:45:50.274Z,40.10
2022-12-01T07:48:17.937Z,44.75
2022-12-01T07:50:45.600Z,44.67
2022-12-01T07:53:13.203Z,43.50
2022-12-01T07:55:40.852Z,43.35
2022-12-01T07:58:08.517Z,47.13
2022-12-01T08:00:37.508Z,43.97
2022-12-01T08:03:05.229Z,51.38
2022-12-01T08:05:32.871Z,49.60
2022-12-01T08:08:00.533Z,50.80
2022-12-01T08:10:28.261Z,36.08
2022-12-01T08:12:55.887Z,41.47
2022-12-01T08:15:23.690Z,46.63
2022-12-01T08:17:52.708Z,50.55
2022-12-01T08:20:24.078Z,41.17
2022-12-01T08:22:51.985Z,46.55
2022-12-01T08:25:19.666Z,38.80
2022-12-01T08:27:47.291Z,43.72
2022-12-01T08:30:15.558Z,45.70
2022-12-01T08:35:12.258Z,42.50
2022-12-01T08:37:55.385Z,48.22
2022-12-01T08:40:23.453Z,42.90
2022-12-01T08:42:52.900Z,48.00
2022-12-01T08:45:20.811Z,42.00
2022-12-01T08:47:48.512Z,47.03
2022-12-01T08:50:17.523Z,51.78
2022-12-01T08:52:45.607Z,54.33
2022-12-01T08:55:13.225Z,37.17
2022-12-01T08:57:40.872Z,46.13
2022-12-01T09:00:10.242Z,40.90
2022-12-01T09:02:37.900Z,47.55
2022-12-01T09:05:06.333Z,55.58
2022-12-01T09:07:35.464Z,50.28
2022-12-01T09:10:03.174Z,46.15
2022-12-01T09:12:31.288Z,48.13
2022-12-01T09:14:58.919Z,45.35
2022-12-01T09:17:26.608Z,52.60
2022-12-01T09:19:54.300Z,52.17
2022-12-01T09:22:21.944Z,52.90
2022-12-01T09:24:50.963Z,53.55
2022-12-01T09:27:18.594Z,34.70
2022-12-01T09:29:46.475Z,41.47
2022-12-01T09:32:14.247Z,47.60
2022-12-01T09:34:41.898Z,47.33
2022-12-01T09:37:09.548Z,54.13
2022-12-01T09:39:37.201Z,53.80
2022-12-01T09:42:12.886Z,41.25
2022-12-01T09:44:43.659Z,44.97
2022-12-01T09:47:19.719Z,42.28
2022-12-01T09:49:54.369Z,44.67
2022-12-01T09:52:24.198Z,42.00
2022-12-01T09:54:54.416Z,43.60
2022-12-01T09:57:30.044Z,47.10
2022-12-01T09:59:58.863Z,35.90
2022-12-01T10:02:33.421Z,46.50
2022-12-01T10:05:04.883Z,46.63
2022-12-01T10:07:35.965Z,38.22
2022-12-01T10:10:07.174Z,45.75
2022-12-01T10:12:37.032Z,41.08
2022-12-01T10:15:19.188Z,50.08
2022-12-01T10:18:01.300Z,47.80
2022-12-01T10:20:36.008Z,44.40
2022-12-01T10:23:24.880Z,43.42
2022-12-01T10:25:57.917Z,44.50
2022-12-01T10:28:51.521Z,47.30
2022-12-01T10:31:21.593Z,45.72
2022-12-01T10:34:00.501Z,44.13
2022-12-01T10:36:29.397Z,45.80
2022-12-01T10:38:57.283Z,45.55
2022-12-01T10:41:29.001Z,37.90
2022-12-01T10:44:00.860Z,48.45
2022-12-01T10:46:34.771Z,52.55
2022-12-01T10:49:11.784Z,43.92
2022-12-01T10:51:52.591Z,48.95
2022-12-01T10:54:20.767Z,45.25
2022-12-01T10:56:50.341Z,42.20
2022-12-01T10:59:27.935Z,36.83
2022-12-01T11:01:57.739Z,46.22
2022-12-01T11:04:35.734Z,43.28
2022-12-01T11:07:08.798Z,48.50
2022-12-01T11:09:36.484Z,40.53
2022-12-01T11:12:05.812Z,45.60
2022-12-01T11:14:44.296Z,47.30
2022-12-01T11:17:27.379Z,41.95
2022-12-01T11:19:55.072Z,45.28
2022-12-01T11:22:25.496Z,46.72
2022-12-01T11:25:02.378Z,42.20
2022-12-01T11:27:35.447Z,38.15
2022-12-01T11:30:08.090Z,43.45
2022-12-01T11:32:39.094Z,41.70
2022-12-01T11:35:17.892Z,32.72
2022-12-01T11:38:13.149Z,43.63
2022-12-01T11:40:46.909Z,33.17
2022-12-01T11:43:25.850Z,38.70
2022-12-01T11:45:56.606Z,39.47
2022-12-01T11:48:26.718Z,35.75
2022-12-01T11:51:07.027Z,41.80
2022-12-01T11:53:37.331Z,40.35
2022-12-01T11:56:17.451Z,30.67
2022-12-01T11:58:47.593Z,37.60
2022-12-01T12:01:29.363Z,31.02
2022-12-01T12:04:11.231Z,34.03
2022-12-01T12:06:50.312Z,37.30
2022-12-01T12:09:46.505Z,38.67
2022-12-01T12:12:29.921Z,38.50
2022-12-01T12:15:06.555Z,40.03
2022-12-01T12:17:57.009Z,38.30
2022-12-01T12:20:38.805Z,38.15
2022-12-01T12:23:27.111Z,40.17
2022-12-01T12:26:05.016Z,40.30
2022-12-01T12:28:44.314Z,41.05
2022-12-01T12:31:23.486Z,37.97
2022-12-01T12:34:04.012Z,42.47
2022-12-01T12:36:43.387Z,38.33
2022-12-01T12:39:30.493Z,40.40
2022-12-01T12:41:59.588Z,39.65
2022-12-01T12:44:44.383Z,33.80
2022-12-01T12:47:35.002Z,35.78
2022-12-01T12:50:16.598Z,35.17
2022-12-01T12:52:48.027Z,35.38
2022-12-01T12:55:21.020Z,31.20
2022-12-01T12:57:53.831Z,33.22
2022-12-01T13:00:25.064Z,36.45
2022-12-01T13:02:57.745Z,34.63
2022-12-01T13:05:32.889Z,31.42
2022-12-01T13:08:05.465Z,32.15
2022-12-01T13:10:39.233Z,31.27
2022-12-01T13:13:26.813Z,35.50
2022-12-01T13:15:56.304Z,35.28
2022-12-01T13:18:34.684Z,35.83
2022-12-01T13:21:05.661Z,36.08
2022-12-01T13:23:34.375Z,29.90
2022-12-01T13:26:06.051Z,33.97
2022-12-01T13:28:39.075Z,36.30
2022-12-01T13:31:10.168Z,34.38
2022-12-01T13:33:39.990Z,35.90
2022-12-01T13:36:45.173Z,39.78
2022-12-01T13:39:03.899Z,35.10
2022-12-01T13:41:34.354Z,34.60
2022-12-01T13:44:05.583Z,33.35
2022-12-01T13:46:50.545Z,31.65
2022-12-01T13:49:36.854Z,33.92
2022-12-01T13:52:31.292Z,34.35
2022-12-01T13:55:28.073Z,32.78
2022-12-01T13:58:27.999Z,33.83
2022-12-01T14:01:35.130Z,33.70
2022-12-01T14:04:24.478Z,33.78
2022-12-01T14:07:17.660Z,35.40
2022-12-01T14:09:47.083Z,34.88
2022-12-01T14:12:19.053Z,35.78
2022-12-01T14:14:54.776Z,35.83
2022-12-01T14:17:29.543Z,32.58
2022-12-01T14:20:08.210Z,32.13
2022-12-01T14:22:40.122Z,30.25
2022-12-01T14:25:25.644Z,35.00
2022-12-01T14:27:56.187Z,33.13
2022-12-01T14:31:15.627Z,32.53
2022-12-01T14:33:52.132Z,33.55
2022-12-01T14:36:31.465Z,31.90
2022-12-01T14:39:04.564Z,32.53
2022-12-01T14:41:42.901Z,36.28
2022-12-01T14:44:18.634Z,33.88
2022-12-01T14:46:52.602Z,32.28
2022-12-01T14:49:24.276Z,31.25
2022-12-01T14:51:57.386Z,30.92
2022-12-01T14:54:31.052Z,34.22
2022-12-01T14:57:07.369Z,34.38
2022-12-01T14:59:36.692Z,32.28
2022-12-01T15:02:09.199Z,34.38
2022-12-01T15:04:37.724Z,28.50
2022-12-01T15:07:05.443Z,30.95
2022-12-01T15:09:34.408Z,30.85
2022-12-01T15:12:07.512Z,31.83
2022-12-01T15:14:37.365Z,31.70
2022-12-01T15:17:08.686Z,31.08
2022-12-01T15:19:39.290Z,33.30
2022-12-01T15:22:13.712Z,32.67
2022-12-01T15:24:42.139Z,34.90
2022-12-01T15:27:26.721Z,30.05
2022-12-01T15:29:54.864Z,31.88
2022-12-01T15:34:54.606Z,31.67
2022-12-01T15:37:24.804Z,29.75
2022-12-01T15:40:00.312Z,32.42
2022-12-01T15:42:41.243Z,31.58
2022-12-01T15:45:18.580Z,32.00
2022-12-01T15:47:48.032Z,27.95
2022-12-01T15:50:29.605Z,24.75
2022-12-01T15:52:58.130Z,26.52
2022-12-01T15:55:29.417Z,29.27
2022-12-01T15:57:59.952Z,30.60
2022-12-01T16:00:28.373Z,26.33
2022-12-01T16:02:58.530Z,33.00
2022-12-01T16:05:28.912Z,27.90
2022-12-01T16:08:13.714Z,29.08
2022-12-01T16:10:41.884Z,26.52
2022-12-01T16:13:40.337Z,28.83
2022-12-01T16:16:31.898Z,27.55
2022-12-01T16:19:02.527Z,29.88
2022-12-01T16:21:34.329Z,28.27
2022-12-01T16:24:03.228Z,28.52
2022-12-01T16:26:32.036Z,33.78
2022-12-01T16:29:01.353Z,33.50
2022-12-01T16:31:29.166Z,30.67
2022-12-01T16:34:18.450Z,35.00
2022-12-01T16:36:51.979Z,32.35
2022-12-01T16:39:19.627Z,31.58
2022-12-01T16:41:48.017Z,33.28
2022-12-01T16:44:28.468Z,40.60
2022-12-01T16:46:56.966Z,33.00
2022-12-01T16:49:24.607Z,38.92
2022-12-01T16:51:56.849Z,39.60
2022-12-01T16:54:25.317Z,37.70
2022-12-01T16:56:52.997Z,33.35
2022-12-01T16:59:21.984Z,37.35
2022-12-01T17:01:49.731Z,40.03
2022-12-01T17:04:17.900Z,39.10
2022-12-01T17:06:45.669Z,40.70
2022-12-01T17:09:13.293Z,39.20
2022-12-01T17:11:40.915Z,37.20
2022-12-01T17:14:08.691Z,41.75
2022-12-01T17:16:38.468Z,45.05
2022-12-01T17:19:06.124Z,44.67
2022-12-01T17:21:33.765Z,40.70
2022-12-01T17:24:01.396Z,40.08
2022-12-01T17:26:29.055Z,41.92
2022-12-01T17:28:56.733Z,36.63
2022-12-01T17:31:24.553Z,37.58
2022-12-01T17:33:53.620Z,35.72
2022-12-01T17:36:21.268Z,32.38
2022-12-01T17:38:49.693Z,32.25
2022-12-01T17:41:21.751Z,36.20
2022-12-01T17:43:49.459Z,33.10
2022-12-01T17:46:18.108Z,36.33
2022-12-01T17:48:47.262Z,29.20
2022-12-01T17:51:16.758Z,36.08
2022-12-01T17:53:44.454Z,34.22
2022-12-01T17:56:16.798Z,39.92
2022-12-01T17:58:45.057Z,33.45
2022-12-01T18:04:04.116Z,45.75
2022-12-01T18:06:33.093Z,41.67
2022-12-01T18:09:01.277Z,50.90
2022-12-01T18:11:29.402Z,50.28
2022-12-01T18:13:57.075Z,46.50
2022-12-01T18:16:27.424Z,40.58
2022-12-01T18:18:55.722Z,36.22
2022-12-01T18:23:54.859Z,33.97
2022-12-01T18:26:23.275Z,33.22
2022-12-01T18:28:54.971Z,34.42
2022-12-01T18:31:22.786Z,31.92
2022-12-01T18:33:50.559Z,26.17
2022-12-01T18:36:20.802Z,30.88
2022-12-01T18:38:48.950Z,34.45
2022-12-01T18:41:18.886Z,34.88
2022-12-01T18:43:47.338Z,23.80
2022-12-01T18:46:16.851Z,33.47
2022-12-01T18:48:46.588Z,35.42
2022-12-01T18:51:14.993Z,31.50
2022-12-01T18:53:43.349Z,30.77
2022-12-01T18:56:12.143Z,33.03
2022-12-01T18:58:41.699Z,28.63
2022-12-01T19:01:20.344Z,34.25
2022-12-01T19:03:48.452Z,32.92
2022-12-01T19:06:16.555Z,34.25
2022-12-01T19:08:44.303Z,33.88
2022-12-01T19:11:11.940Z,36.40
2022-12-01T19:13:41.645Z,36.03
2022-12-01T19:16:10.274Z,37.30
2022-12-01T19:18:38.369Z,38.38
2022-12-01T19:21:07.639Z,35.42
2022-12-01T19:23:35.408Z,33.90
2022-12-01T19:26:04.971Z,33.83
2022-12-01T19:28:32.748Z,35.33
2022-12-01T19:31:06.020Z,37.33
2022-12-01T19:33:33.825Z,36.30
2022-12-01T19:36:05.938Z,34.17
2022-12-01T19:38:33.683Z,34.40
2022-12-01T19:41:01.533Z,38.47
2022-12-01T19:43:29.250Z,39.83
2022-12-01T19:45:57.525Z,38.28
2022-12-01T19:50:54.084Z,37.22
2022-12-01T19:53:21.702Z,36.10
2022-12-01T19:55:49.354Z,38.40
2022-12-01T19:58:17.518Z,39.15
2022-12-01T20:00:45.649Z,39.90
2022-12-01T20:03:13.303Z,38.38
2022-12-01T20:05:42.372Z,41.67
2022-12-01T20:08:13.576Z,41.55
2022-12-01T20:10:47.716Z,38.35
2022-12-01T20:13:15.491Z,40.20
2022-12-01T20:15:43.122Z,36.95
2022-12-01T20:18:14.487Z,39.35
2022-12-01T20:20:43.524Z,37.22
2022-12-01T20:23:11.134Z,36.67
2022-12-01T20:25:38.839Z,37.97
2022-12-01T20:28:06.557Z,38.20
2022-12-01T20:30:34.249Z,41.05
2022-12-01T20:33:01.897Z,38.03
2022-12-01T20:35:29.544Z,41.35
2022-12-01T20:37:59.632Z,43.85
2022-12-01T20:40:27.291Z,39.05
2022-12-01T20:42:54.956Z,41.30
2022-12-01T20:45:22.627Z,44.75
2022-12-01T20:47:50.295Z,39.00
2022-12-01T20:50:18.020Z,40.35
2022-12-01T20:52:45.707Z,41.60
2022-12-01T20:55:14.729Z,38.67
2022-12-01T20:57:42.424Z,41.05
2022-12-01T21:00:13.007Z,40.63
2022-12-01T21:02:40.773Z,35.47
2022-12-01T21:05:08.614Z,40.53
2022-12-01T21:07:36.420Z,34.45
2022-12-01T21:10:04.680Z,39.30
2022-12-01T21:12:51.708Z,39.15
2022-12-01T21:15:25.066Z,37.25
2022-12-01T21:17:56.368Z,42.03
2022-12-01T21:20:29.398Z,35.17
2022-12-01T21:23:02.762Z,42.53
2022-12-01T21:25:30.998Z,40.30
2022-12-01T21:28:17.771Z,39.22
2022-12-01T21:30:45.701Z,39.03
2022-12-01T21:33:21.684Z,37.50
2022-12-01T21:35:51.020Z,39.92
2022-12-01T21:38:21.877Z,36.80
2022-12-01T21:40:50.084Z,34.90
2022-12-01T21:43:26.297Z,38.90
2022-12-01T21:45:57.119Z,42.88
2022-12-01T21:48:25.052Z,36.38
2022-12-01T21:50:59.436Z,39.03
2022-12-01T21:53:37.936Z,35.90
2022-12-01T21:56:05.799Z,39.03
2022-12-01T21:58:38.131Z,38.85
2022-12-01T22:01:17.627Z,37.17
2022-12-01T22:03:46.279Z,39.13
2022-12-01T22:06:31.054Z,39.33
2022-12-01T22:09:02.208Z,38.55
2022-12-01T22:11:31.059Z,40.85
2022-12-01T22:14:11.848Z,40.28
2022-12-01T22:16:43.218Z,42.28
2022-12-01T22:19:24.223Z,39.70
2022-12-01T22:21:55.754Z,47.17
2022-12-01T22:24:25.819Z,43.83
2022-12-01T22:27:26.321Z,42.38
2022-12-01T22:29:58.716Z,37.45
2022-12-01T22:32:53.061Z,40.30
2022-12-01T22:35:42.996Z,42.95
2022-12-01T22:38:21.227Z,37.90
2022-12-01T22:40:56.281Z,45.80
2022-12-01T22:43:29.974Z,45.33
2022-12-01T22:46:33.357Z,45.75
2022-12-01T22:49:13.605Z,39.90
2022-12-01T22:51:45.139Z,48.55
2022-12-01T22:54:39.392Z,47.08
2022-12-01T22:57:25.612Z,49.00
2022-12-01T22:59:54.188Z,48.55
2022-12-01T23:02:24.495Z,53.35
2022-12-01T23:04:57.786Z,46.10
2022-12-01T23:07:33.945Z,40.78
2022-12-01T23:10:11.703Z,45.65
2022-12-01T23:12:40.005Z,44.63
2022-12-01T23:17:49.908Z,39.38
2022-12-01T23:20:34.159Z,44.78
2022-12-01T23:23:03.587Z,48.42
2022-12-01T23:25:32.295Z,44.65
2022-12-01T23:28:02.280Z,45.60
2022-12-01T23:30:30.019Z,51.25
2022-12-01T23:33:15.459Z,40.80
2022-12-01T23:35:49.148Z,52.75
2022-12-01T23:38:19.343Z,45.20
2022-12-01T23:40:47.167Z,49.45
2022-12-01T23:43:19.762Z,46.45
2022-12-01T23:45:49.303Z,50.55
2022-12-01T23:48:21.695Z,49.08
2022-12-01T23:50:53.559Z,44.80
2022-12-01T23:53:29.983Z,44.70
2022-12-01T23:56:02.935Z,47.47
2022-12-01T23:58:30.653Z,50.13
